Time;durP1;ratioP1;P1;durP2;ratioP2;P2;SDS_P1;SDS_P2;PMS_P1;PMS_P2;Temp;Humidity;BMP_temperature;BMP_pressure;BME280_temperature;BME280_humidity;BME280_pressure;Samples;Min_cycle;Max_cycle;Signal;HPM_P1;HPM_P2
2024/02/05 00:00:51;;;;;;;3.50;2.40;;;10.10;99.90;;;;;;6242388;23;20012;-67
2024/02/05 00:03:37;;;;;;;3.13;2.42;;;10.10;99.90;;;;;;6241668;23;20087;-67
2024/02/05 00:06:25;;;;;;;3.72;2.83;;;10.10;99.90;;;;;;6242520;23;20028;-67
2024/02/05 00:09:11;;;;;;;3.42;2.38;;;10.10;99.90;;;;;;6243803;23;20016;-68
2024/02/05 00:11:57;;;;;;;4.72;2.25;;;10.10;99.90;;;;;;6241855;23;20012;-68
2024/02/05 00:14:43;;;;;;;3.58;2.38;;;10.20;99.90;;;;;;6241252;23;20028;-68
2024/02/05 00:17:30;;;;;;;2.75;2.17;;;10.20;99.90;;;;;;6241428;23;20004;-67
2024/02/05 00:20:16;;;;;;;3.20;1.92;;;10.20;99.90;;;;;;6241828;23;20016;-67
2024/02/05 00:23:02;;;;;;;4.05;2.00;;;10.30;99.90;;;;;;6241565;23;20009;-67
2024/02/05 00:25:48;;;;;;;2.35;1.60;;;10.30;99.90;;;;;;6243632;23;20016;-68
2024/02/05 00:28:34;;;;;;;2.22;1.70;;;10.30;99.90;;;;;;6240431;23;20472;-66
2024/02/05 00:31:20;;;;;;;2.10;1.70;;;10.30;99.90;;;;;;6241763;23;20008;-66
2024/02/05 00:34:06;;;;;;;2.33;1.58;;;10.30;99.90;;;;;;6241329;23;20531;-67
2024/02/05 00:36:52;;;;;;;2.72;1.63;;;10.40;99.90;;;;;;6241724;23;20048;-66
2024/02/05 00:39:38;;;;;;;1.77;1.30;;;10.40;99.90;;;;;;6241257;23;20032;-67
2024/02/05 00:42:23;;;;;;;2.25;1.60;;;10.40;99.90;;;;;;6243751;23;20023;-67
2024/02/05 00:45:10;;;;;;;2.15;1.60;;;10.40;99.90;;;;;;6243381;23;20004;-66
2024/02/05 00:47:57;;;;;;;1.63;1.25;;;10.40;99.90;;;;;;6241305;23;20024;-67
2024/02/05 00:50:43;;;;;;;1.40;1.10;;;10.50;99.90;;;;;;6241536;23;20012;-67
2024/02/05 00:53:29;;;;;;;1.77;1.20;;;10.50;99.90;;;;;;6241534;23;20004;-67
2024/02/05 00:56:15;;;;;;;2.10;1.30;;;10.60;99.90;;;;;;6241365;23;20012;-67
2024/02/05 00:59:01;;;;;;;1.92;1.20;;;10.60;99.90;;;;;;6240601;23;20023;-67
2024/02/05 01:01:47;;;;;;;1.40;1.05;;;10.60;99.90;;;;;;6241071;23;20523;-67
2024/02/05 01:04:34;;;;;;;0.75;0.75;;;10.70;99.90;;;;;;6242560;23;20008;-67
2024/02/05 01:07:20;;;;;;;1.20;1.10;;;10.70;99.90;;;;;;6240968;23;20020;-68
2024/02/05 01:10:06;;;;;;;1.08;0.90;;;10.70;99.90;;;;;;6241105;23;20008;-67
2024/02/05 01:12:52;;;;;;;1.10;1.00;;;10.80;99.90;;;;;;6240552;23;20055;-68
2024/02/05 01:15:38;;;;;;;0.80;0.80;;;10.90;99.90;;;;;;6240706;23;20083;-67
2024/02/05 01:18:24;;;;;;;0.55;0.55;;;10.90;99.90;;;;;;6241781;23;20018;-67
2024/02/05 01:21:09;;;;;;;0.80;0.68;;;10.90;99.90;;;;;;6240834;23;20008;-67
2024/02/05 01:23:55;;;;;;;0.80;0.80;;;11.00;99.90;;;;;;6241155;23;20016;-67
2024/02/05 01:26:41;;;;;;;0.63;0.43;;;11.00;99.90;;;;;;6240613;23;20070;-66
2024/02/05 01:29:27;;;;;;;0.65;0.60;;;11.10;99.90;;;;;;6241591;23;20012;-67
2024/02/05 01:32:13;;;;;;;0.68;0.60;;;11.10;99.90;;;;;;6240195;23;20473;-67
2024/02/05 01:35:00;;;;;;;0.77;0.63;;;11.10;99.90;;;;;;6240791;23;20045;-66
2024/02/05 01:37:46;;;;;;;0.50;0.50;;;11.20;99.90;;;;;;6240189;23;20008;-67
2024/02/05 01:40:34;;;;;;;0.82;0.75;;;11.20;99.90;;;;;;6240307;23;20012;-67
2024/02/05 01:43:20;;;;;;;0.50;0.50;;;11.20;99.90;;;;;;6240368;23;20012;-67
2024/02/05 01:46:12;;;;;;;0.88;0.65;;;11.30;99.90;;;;;;6242098;23;20066;-66
2024/02/05 01:49:05;;;;;;;0.70;0.70;;;11.30;99.90;;;;;;6241485;23;20496;-67
2024/02/05 01:51:55;;;;;;;0.57;0.57;;;11.30;99.90;;;;;;6241404;23;20473;-66
2024/02/05 01:54:42;;;;;;;0.85;0.75;;;11.40;99.90;;;;;;6241724;23;20011;-67
2024/02/05 01:57:28;;;;;;;0.80;0.73;;;11.40;99.90;;;;;;6242568;23;20564;-67
2024/02/05 02:00:14;;;;;;;1.17;0.90;;;11.40;99.90;;;;;;6240838;23;20012;-67
2024/02/05 02:03:01;;;;;;;1.23;0.80;;;11.40;99.90;;;;;;6240631;23;20008;-66
2024/02/05 02:05:47;;;;;;;0.70;0.70;;;11.40;99.90;;;;;;6241968;23;20004;-66
2024/02/05 02:08:35;;;;;;;0.88;0.75;;;11.50;99.90;;;;;;6242633;23;20056;-66
2024/02/05 02:11:21;;;;;;;1.23;0.80;;;11.50;99.90;;;;;;6240576;23;20111;-68
2024/02/05 02:14:08;;;;;;;0.60;0.60;;;11.50;99.90;;;;;;6238960;23;20413;-67
2024/02/05 02:16:54;;;;;;;0.82;0.82;;;11.60;99.90;;;;;;6241317;23;20012;-68
2024/02/05 02:19:46;;;;;;;0.80;0.80;;;11.60;99.90;;;;;;6217119;23;20512;-68
2024/02/05 02:22:44;;;;;;;1.33;0.90;;;11.60;99.90;;;;;;6239544;23;20008;-66
2024/02/05 02:25:30;;;;;;;0.70;0.70;;;11.60;99.90;;;;;;6240014;23;20056;-66
2024/02/05 02:28:16;;;;;;;1.00;0.90;;;11.60;99.90;;;;;;6239627;23;20020;-66
2024/02/05 02:31:03;;;;;;;0.90;0.90;;;11.60;99.90;;;;;;6240887;23;20062;-67
2024/02/05 02:34:00;;;;;;;1.25;0.80;;;11.60;99.90;;;;;;6242339;23;20015;-68
2024/02/05 02:36:55;;;;;;;0.90;0.70;;;11.60;99.90;;;;;;6240559;23;20012;-69
2024/02/05 02:39:54;;;;;;;1.27;0.82;;;11.60;99.90;;;;;;6240445;23;20008;-69
2024/02/05 02:42:43;;;;;;;1.17;1.00;;;11.60;99.90;;;;;;6241334;23;20091;-69
2024/02/05 02:45:30;;;;;;;1.23;1.02;;;11.70;99.90;;;;;;6241715;23;20008;-69
2024/02/05 02:48:16;;;;;;;1.00;0.90;;;11.70;99.90;;;;;;6242307;23;20016;-69
2024/02/05 02:51:02;;;;;;;1.15;0.80;;;11.70;99.90;;;;;;6241201;23;20008;-69
2024/02/05 02:53:49;;;;;;;0.80;0.80;;;11.70;99.90;;;;;;6240493;23;20086;-69
2024/02/05 02:56:35;;;;;;;1.40;0.68;;;11.70;99.90;;;;;;6240218;23;20074;-69
2024/02/05 02:59:21;;;;;;;0.70;0.70;;;11.70;99.90;;;;;;6242127;23;20083;-70
2024/02/05 03:02:07;;;;;;;1.58;0.82;;;11.80;99.90;;;;;;6239676;23;20008;-69
2024/02/05 03:04:54;;;;;;;2.35;0.68;;;11.70;99.90;;;;;;6241809;23;20012;-69
2024/02/05 03:07:40;;;;;;;1.45;0.70;;;11.70;99.90;;;;;;6239932;23;20121;-69
2024/02/05 03:10:26;;;;;;;0.82;0.70;;;11.80;99.90;;;;;;6240663;23;20008;-70
2024/02/05 03:13:12;;;;;;;0.95;0.57;;;11.80;99.90;;;;;;6240120;23;20491;-69
2024/02/05 03:15:58;;;;;;;0.82;0.57;;;11.80;99.90;;;;;;6239707;23;20008;-69
2024/02/05 03:18:44;;;;;;;0.65;0.65;;;11.80;99.90;;;;;;6238743;23;20119;-68
2024/02/05 03:21:30;;;;;;;0.75;0.57;;;11.80;99.90;;;;;;6240615;23;20004;-68
2024/02/05 03:24:16;;;;;;;0.68;0.68;;;11.80;99.90;;;;;;6241161;23;20004;-69
2024/02/05 03:27:02;;;;;;;1.27;0.63;;;11.80;99.90;;;;;;6239887;23;20408;-68
2024/02/05 03:29:49;;;;;;;0.98;0.45;;;11.80;99.90;;;;;;6240637;23;20020;-68
2024/02/05 03:32:35;;;;;;;0.90;0.82;;;11.80;99.90;;;;;;6241046;23;20032;-69
2024/02/05 03:35:22;;;;;;;0.60;0.60;;;11.80;99.90;;;;;;6241770;23;20012;-67
2024/02/05 03:38:08;;;;;;;0.55;0.55;;;11.80;99.90;;;;;;6241827;23;20035;-70
2024/02/05 03:40:54;;;;;;;0.90;0.65;;;11.90;99.90;;;;;;6241071;23;20336;-70
2024/02/05 03:43:40;;;;;;;0.65;0.50;;;11.90;99.90;;;;;;6240166;23;20452;-69
2024/02/05 03:46:26;;;;;;;0.50;0.50;;;11.90;99.90;;;;;;6239945;23;20008;-70
2024/02/05 03:49:12;;;;;;;1.33;0.60;;;11.80;99.90;;;;;;6240565;22;20388;-69
2024/02/05 03:51:58;;;;;;;0.57;0.52;;;11.80;99.90;;;;;;6241891;23;20008;-69
2024/02/05 03:54:46;;;;;;;1.73;0.90;;;11.90;99.90;;;;;;6243741;23;20394;-70
2024/02/05 03:57:36;;;;;;;0.57;0.57;;;11.80;99.90;;;;;;6241894;23;20440;-70
2024/02/05 04:00:22;;;;;;;2.15;1.30;;;11.80;99.90;;;;;;6243188;23;20086;-70
2024/02/05 04:03:08;;;;;;;1.77;0.65;;;11.80;99.90;;;;;;6243400;23;20012;-70
2024/02/05 04:05:55;;;;;;;3.20;0.70;;;11.90;99.90;;;;;;6241349;23;20012;-70
2024/02/05 04:08:41;;;;;;;1.60;0.57;;;11.90;99.90;;;;;;6241250;23;20020;-70
2024/02/05 04:11:27;;;;;;;2.17;0.68;;;11.90;99.90;;;;;;6241137;23;20035;-70
2024/02/05 04:14:12;;;;;;;0.50;0.50;;;11.90;99.90;;;;;;6240246;23;20030;-70
2024/02/05 04:16:59;;;;;;;0.63;0.60;;;11.90;99.90;;;;;;6240761;23;20066;-70
2024/02/05 04:19:45;;;;;;;0.90;0.60;;;11.90;99.90;;;;;;6241379;23;20012;-69
2024/02/05 04:22:31;;;;;;;0.82;0.70;;;11.90;99.90;;;;;;6240549;23;20088;-70
2024/02/05 04:25:17;;;;;;;1.92;0.50;;;11.80;99.90;;;;;;6241857;23;20386;-70
2024/02/05 04:28:03;;;;;;;0.90;0.80;;;11.90;99.90;;;;;;6241508;23;20024;-70
2024/02/05 04:30:50;;;;;;;1.20;0.80;;;11.90;99.90;;;;;;6241961;23;20012;-69
2024/02/05 04:33:36;;;;;;;0.77;0.60;;;11.90;99.90;;;;;;6242397;23;20019;-70
2024/02/05 04:36:22;;;;;;;1.45;0.50;;;11.80;99.90;;;;;;6241335;23;20062;-70
2024/02/05 04:39:10;;;;;;;0.93;0.60;;;11.90;99.90;;;;;;6240290;23;20004;-70
2024/02/05 04:41:56;;;;;;;1.35;0.60;;;11.90;99.90;;;;;;6241576;23;20086;-70
2024/02/05 04:44:42;;;;;;;0.50;0.50;;;11.90;99.90;;;;;;6242343;23;20032;-69
2024/02/05 04:47:28;;;;;;;1.48;0.45;;;11.80;99.90;;;;;;6241223;23;20396;-69
2024/02/05 04:50:14;;;;;;;0.50;0.50;;;11.90;99.90;;;;;;6241318;23;20082;-70
2024/02/05 04:53:00;;;;;;;0.98;0.82;;;11.80;99.90;;;;;;6241451;23;20008;-69
2024/02/05 04:55:46;;;;;;;1.10;1.00;;;11.80;99.90;;;;;;6240617;23;20004;-69
2024/02/05 04:58:32;;;;;;;0.82;0.75;;;11.80;99.90;;;;;;6242210;23;20437;-70
2024/02/05 05:01:18;;;;;;;0.60;0.60;;;11.80;99.90;;;;;;6240789;23;20019;-70
2024/02/05 05:04:04;;;;;;;1.42;0.60;;;11.80;99.90;;;;;;6240494;23;20349;-69
2024/02/05 05:06:50;;;;;;;1.95;0.80;;;11.80;99.90;;;;;;6241994;23;20094;-68
2024/02/05 05:09:36;;;;;;;1.98;0.60;;;11.90;99.90;;;;;;6240935;23;20015;-69
2024/02/05 05:12:21;;;;;;;1.45;0.80;;;11.80;99.90;;;;;;6242906;22;20016;-69
2024/02/05 05:15:08;;;;;;;1.40;0.80;;;11.80;99.90;;;;;;6240761;23;20019;-69
2024/02/05 05:17:54;;;;;;;2.00;0.85;;;11.80;99.90;;;;;;6240960;23;20016;-71
2024/02/05 05:20:41;;;;;;;1.25;0.77;;;11.80;99.90;;;;;;6241110;23;20012;-70
2024/02/05 05:23:27;;;;;;;1.83;0.88;;;11.80;99.90;;;;;;6242593;23;20012;-70
2024/02/05 05:26:13;;;;;;;1.73;1.00;;;11.80;99.90;;;;;;6242265;23;20571;-70
2024/02/05 05:28:59;;;;;;;1.67;1.05;;;11.80;99.90;;;;;;6240999;23;20107;-70
2024/02/05 05:31:45;;;;;;;3.63;1.38;;;11.80;99.90;;;;;;6242621;23;20008;-68
2024/02/05 05:34:31;;;;;;;1.48;0.90;;;11.80;99.90;;;;;;6242581;23;20512;-69
2024/02/05 05:37:16;;;;;;;1.00;0.70;;;11.70;99.90;;;;;;6240258;23;20430;-70
2024/02/05 05:40:04;;;;;;;1.00;0.90;;;11.70;99.90;;;;;;6242372;23;20065;-69
2024/02/05 05:42:50;;;;;;;2.60;1.10;;;11.70;99.90;;;;;;6240868;23;20009;-66
2024/02/05 05:45:36;;;;;;;1.15;0.88;;;11.70;99.90;;;;;;6242334;23;20062;-67
2024/02/05 05:48:22;;;;;;;2.15;1.10;;;11.70;99.90;;;;;;6239100;23;20479;-67
2024/02/05 05:51:07;;;;;;;1.65;1.00;;;11.70;99.90;;;;;;6239992;23;20008;-66
2024/02/05 05:53:53;;;;;;;2.15;0.90;;;11.70;99.90;;;;;;6241103;23;20016;-66
2024/02/05 05:56:39;;;;;;;1.27;0.70;;;11.70;99.90;;;;;;6240849;23;20011;-67
2024/02/05 05:59:25;;;;;;;2.60;0.60;;;11.80;99.90;;;;;;6242506;23;20008;-66
2024/02/05 06:02:11;;;;;;;2.22;0.93;;;11.70;99.90;;;;;;6242764;23;20364;-66
2024/02/05 06:04:58;;;;;;;1.70;1.20;;;11.80;99.90;;;;;;6242173;23;20019;-66
2024/02/05 06:07:44;;;;;;;1.90;1.20;;;11.80;99.90;;;;;;6242028;23;20031;-67
2024/02/05 06:10:30;;;;;;;3.97;1.08;;;11.80;99.90;;;;;;6240732;23;20069;-67
2024/02/05 06:13:16;;;;;;;1.35;0.90;;;11.90;99.90;;;;;;6240387;23;20020;-67
2024/02/05 06:16:08;;;;;;;2.28;1.05;;;11.90;99.90;;;;;;6239278;23;20004;-67
2024/02/05 06:18:54;;;;;;;1.40;0.88;;;11.90;99.90;;;;;;6240564;23;20012;-67
2024/02/05 06:21:40;;;;;;;2.00;1.00;;;11.90;99.90;;;;;;6219097;23;20344;-68
2024/02/05 06:24:26;;;;;;;1.05;0.90;;;11.90;99.90;;;;;;6219923;23;20019;-67
2024/02/05 06:27:12;;;;;;;1.05;0.80;;;11.80;99.90;;;;;;6239669;23;20056;-67
2024/02/05 06:29:58;;;;;;;2.08;0.80;;;11.90;99.90;;;;;;6240348;23;20008;-67
2024/02/05 06:32:44;;;;;;;1.52;0.90;;;11.90;99.90;;;;;;6240127;23;20356;-66
2024/02/05 06:35:29;;;;;;;1.15;0.95;;;11.80;99.90;;;;;;6240012;23;20097;-67
2024/02/05 06:38:15;;;;;;;0.93;0.80;;;11.80;99.90;;;;;;6240564;23;20008;-66
2024/02/05 06:41:02;;;;;;;2.25;1.00;;;11.80;99.90;;;;;;6242045;23;20012;-66
2024/02/05 06:43:48;;;;;;;1.30;1.00;;;11.80;99.90;;;;;;6240569;23;20031;-67
2024/02/05 06:46:34;;;;;;;2.03;1.00;;;11.80;99.90;;;;;;6242945;23;20105;-66
2024/02/05 06:49:22;;;;;;;1.63;0.70;;;11.80;99.90;;;;;;6242295;23;20023;-66
2024/02/05 06:52:07;;;;;;;2.08;1.23;;;11.80;99.90;;;;;;6240539;23;20532;-66
2024/02/05 06:54:53;;;;;;;1.63;0.85;;;11.70;99.90;;;;;;6239664;23;20044;-66
2024/02/05 06:57:39;;;;;;;1.33;1.02;;;11.70;99.90;;;;;;6242975;23;20498;-67
2024/02/05 07:00:25;;;;;;;1.85;0.75;;;11.80;99.90;;;;;;6240605;23;20039;-67
2024/02/05 07:03:11;;;;;;;1.88;1.15;;;11.80;99.90;;;;;;6240531;23;20016;-67
2024/02/05 07:05:57;;;;;;;1.17;0.90;;;11.80;99.90;;;;;;6240337;23;20429;-67
2024/02/05 07:08:45;;;;;;;0.75;0.70;;;11.80;99.90;;;;;;6241980;23;20031;-66
2024/02/05 07:11:31;;;;;;;0.60;0.60;;;11.80;99.90;;;;;;6240118;23;20012;-66
2024/02/05 07:14:17;;;;;;;1.55;0.65;;;11.80;99.90;;;;;;6240696;23;20024;-66
2024/02/05 07:17:03;;;;;;;1.60;0.68;;;11.90;99.90;;;;;;6239816;23;20012;-66
2024/02/05 07:19:49;;;;;;;0.55;0.55;;;11.80;99.90;;;;;;6239721;23;20019;-66
2024/02/05 07:22:35;;;;;;;0.85;0.60;;;11.80;99.90;;;;;;6241582;23;20086;-66
2024/02/05 07:25:21;;;;;;;2.92;0.98;;;11.80;99.90;;;;;;6241201;23;20099;-67
2024/02/05 07:28:07;;;;;;;0.60;0.60;;;11.90;99.90;;;;;;6241319;23;20020;-68
2024/02/05 07:30:54;;;;;;;0.73;0.73;;;11.90;99.90;;;;;;6241568;23;20008;-67
2024/02/05 07:33:40;;;;;;;0.77;0.73;;;11.90;99.90;;;;;;6242146;23;20012;-66
2024/02/05 07:36:26;;;;;;;1.80;1.38;;;11.90;99.90;;;;;;6242514;23;20004;-65
2024/02/05 07:39:12;;;;;;;0.93;0.80;;;11.80;99.90;;;;;;6242055;23;20449;-65
2024/02/05 07:42:01;;;;;;;0.82;0.82;;;11.90;99.90;;;;;;6242134;23;20306;-65
2024/02/05 07:44:47;;;;;;;1.17;1.08;;;11.90;99.90;;;;;;6241755;23;20011;-65
2024/02/05 07:47:33;;;;;;;1.00;0.70;;;11.90;99.90;;;;;;6241097;23;20484;-65
2024/02/05 07:50:19;;;;;;;2.38;1.15;;;11.90;99.90;;;;;;6242200;23;20058;-66
2024/02/05 07:53:06;;;;;;;1.50;0.90;;;11.90;99.90;;;;;;6241403;23;20012;-66
2024/02/05 07:55:52;;;;;;;1.70;0.90;;;11.90;99.90;;;;;;6243107;23;20011;-65
2024/02/05 07:58:38;;;;;;;2.38;1.20;;;11.90;99.90;;;;;;6241743;23;20031;-66
2024/02/05 08:01:24;;;;;;;3.35;1.30;;;11.90;99.90;;;;;;6243735;23;20011;-66
2024/02/05 08:04:10;;;;;;;1.98;1.00;;;11.90;99.90;;;;;;6242384;23;20019;-66
2024/02/05 08:06:59;;;;;;;1.58;1.10;;;11.90;99.90;;;;;;6242617;23;20015;-66
2024/02/05 08:09:44;;;;;;;5.03;1.58;;;11.90;99.90;;;;;;6243517;23;20008;-66
2024/02/05 08:12:30;;;;;;;5.50;1.48;;;11.90;99.90;;;;;;6241789;22;20345;-66
2024/02/05 08:15:16;;;;;;;3.05;1.40;;;11.90;99.90;;;;;;6241735;23;20412;-65
2024/02/05 08:18:02;;;;;;;5.00;2.30;;;11.90;99.90;;;;;;6237814;23;20008;-68
2024/02/05 08:20:48;;;;;;;3.95;2.05;;;11.90;99.90;;;;;;6241772;23;20008;-69
2024/02/05 08:23:38;;;;;;;3.47;1.42;;;11.90;99.90;;;;;;6240636;23;20333;-69
2024/02/05 08:26:24;;;;;;;4.90;1.73;;;11.90;99.90;;;;;;6220461;23;20012;-64
2024/02/05 08:29:10;;;;;;;4.10;1.80;;;11.90;99.90;;;;;;6239105;23;20027;-64
2024/02/05 08:31:56;;;;;;;3.10;1.58;;;11.90;99.90;;;;;;6241253;23;20008;-63
2024/02/05 08:34:41;;;;;;;3.80;1.90;;;11.90;99.90;;;;;;6240976;23;20047;-64
2024/02/05 08:37:27;;;;;;;4.57;1.60;;;11.90;99.90;;;;;;6241185;23;20062;-64
2024/02/05 08:40:13;;;;;;;5.03;2.05;;;11.90;99.90;;;;;;6243493;23;20011;-65
2024/02/05 08:42:59;;;;;;;3.33;1.80;;;11.90;99.90;;;;;;6241899;23;20098;-64
2024/02/05 08:45:45;;;;;;;4.10;1.92;;;11.90;99.90;;;;;;6241548;23;20004;-64
2024/02/05 08:48:31;;;;;;;3.35;2.20;;;11.90;99.90;;;;;;6242634;23;20020;-64
2024/02/05 08:51:17;;;;;;;6.25;2.33;;;11.90;99.90;;;;;;6239565;23;20036;-64
2024/02/05 08:54:03;;;;;;;5.55;2.00;;;11.90;99.90;;;;;;6240432;23;20024;-64
2024/02/05 08:56:49;;;;;;;5.20;2.33;;;11.80;99.90;;;;;;6239999;23;20472;-64
2024/02/05 08:59:35;;;;;;;4.93;2.03;;;11.80;99.90;;;;;;6241381;23;20047;-64
2024/02/05 09:02:21;;;;;;;4.32;2.40;;;11.80;99.90;;;;;;6242191;23;20008;-64
2024/02/05 09:05:07;;;;;;;6.07;2.80;;;11.80;99.90;;;;;;6240718;23;20019;-64
2024/02/05 09:07:53;;;;;;;7.47;2.28;;;11.80;99.90;;;;;;6241816;23;20148;-64
2024/02/05 09:10:39;;;;;;;4.13;2.85;;;11.80;99.90;;;;;;6243300;23;20011;-64
2024/02/05 09:13:25;;;;;;;4.05;2.10;;;11.80;99.90;;;;;;6240468;23;20020;-63
2024/02/05 09:16:11;;;;;;;8.25;2.60;;;11.80;99.90;;;;;;6240246;23;20012;-63
2024/02/05 09:18:57;;;;;;;6.63;2.88;;;11.90;99.90;;;;;;6219929;23;20023;-64
2024/02/05 09:21:43;;;;;;;6.15;3.13;;;11.90;99.90;;;;;;6220219;23;20009;-64
2024/02/05 09:24:29;;;;;;;4.00;2.60;;;11.90;99.90;;;;;;6240439;23;20012;-64
2024/02/05 09:27:15;;;;;;;6.78;2.50;;;11.90;99.90;;;;;;6238222;23;20024;-65
2024/02/05 09:30:01;;;;;;;6.82;2.67;;;11.90;99.90;;;;;;6242734;23;20199;-65
2024/02/05 09:32:49;;;;;;;6.88;3.08;;;11.90;99.90;;;;;;6241986;23;20008;-65
2024/02/05 09:35:35;;;;;;;6.20;3.28;;;11.90;99.90;;;;;;6242614;23;20014;-66
2024/02/05 09:38:23;;;;;;;7.43;3.60;;;11.90;99.90;;;;;;6242559;23;20039;-66
2024/02/05 09:41:11;;;;;;;10.27;4.00;;;11.80;99.90;;;;;;6240344;23;20070;-67
2024/02/05 09:43:57;;;;;;;8.32;3.17;;;11.80;99.90;;;;;;6239566;23;20019;-66
2024/02/05 09:46:49;;;;;;;9.07;3.55;;;11.80;99.90;;;;;;6239688;23;20111;-66
2024/02/05 09:49:36;;;;;;;7.20;3.50;;;11.90;99.90;;;;;;6215751;23;20016;-67
2024/02/05 09:52:28;;;;;;;5.97;3.90;;;11.80;99.90;;;;;;6240944;23;20008;-67
2024/02/05 09:55:15;;;;;;;9.45;3.92;;;11.80;99.90;;;;;;6240998;23;20081;-66
2024/02/05 09:58:02;;;;;;;7.65;3.38;;;11.80;99.90;;;;;;6240887;23;20008;-66
2024/02/05 10:00:49;;;;;;;9.60;4.07;;;11.80;99.90;;;;;;6241821;23;20012;-67
2024/02/05 10:03:35;;;;;;;10.52;3.65;;;11.80;99.90;;;;;;6240973;23;20507;-67
2024/02/05 10:06:25;;;;;;;9.82;3.80;;;11.80;99.90;;;;;;6239856;23;20016;-66
2024/02/05 10:09:12;;;;;;;9.35;3.75;;;11.80;99.90;;;;;;6240196;23;20465;-67
2024/02/05 10:12:00;;;;;;;16.15;3.95;;;11.80;99.90;;;;;;6239245;23;20461;-66
2024/02/05 10:14:46;;;;;;;8.38;4.03;;;11.80;99.90;;;;;;6240241;23;20024;-66
2024/02/05 10:17:32;;;;;;;7.97;3.50;;;11.80;99.90;;;;;;6236166;23;20007;-66
2024/02/05 10:20:29;;;;;;;12.43;4.03;;;11.80;99.90;;;;;;6238773;23;20012;-66
2024/02/05 10:23:15;;;;;;;10.25;3.00;;;11.80;99.90;;;;;;6238508;23;20464;-66
2024/02/05 10:26:05;;;;;;;8.30;3.53;;;11.80;99.90;;;;;;6242230;23;20065;-66
2024/02/05 10:28:51;;;;;;;8.57;3.50;;;11.80;99.90;;;;;;6240699;23;20020;-66
2024/02/05 10:31:49;;;;;;;5.75;3.15;;;11.80;99.90;;;;;;6241482;23;20066;-66
2024/02/05 10:34:35;;;;;;;6.93;3.60;;;11.80;99.90;;;;;;6240155;23;20046;-66
2024/02/05 10:37:22;;;;;;;9.63;3.08;;;11.80;99.90;;;;;;6240446;23;20042;-66
2024/02/05 10:40:10;;;;;;;8.77;3.13;;;11.80;99.90;;;;;;6241323;23;20012;-66
2024/02/05 10:42:56;;;;;;;4.60;2.55;;;11.80;99.90;;;;;;6240027;23;20012;-66
2024/02/05 10:45:42;;;;;;;6.03;2.72;;;11.80;99.90;;;;;;6238056;23;20111;-66
2024/02/05 10:48:28;;;;;;;6.10;3.38;;;11.80;99.90;;;;;;6240220;23;20113;-68
2024/02/05 10:51:14;;;;;;;8.30;3.78;;;11.80;99.90;;;;;;6240085;23;20046;-68
2024/02/05 10:54:01;;;;;;;8.73;3.88;;;11.80;99.90;;;;;;6239202;23;20012;-66
2024/02/05 10:56:48;;;;;;;8.95;3.22;;;11.80;99.90;;;;;;6241960;23;20027;-65
2024/02/05 10:59:34;;;;;;;7.75;3.40;;;11.80;99.90;;;;;;6240935;23;20051;-66
2024/02/05 11:02:28;;;;;;;8.23;3.35;;;11.80;99.90;;;;;;6240813;23;20044;-66
2024/02/05 11:05:15;;;;;;;7.50;3.75;;;11.70;99.90;;;;;;6242594;23;20020;-68
2024/02/05 11:08:18;;;;;;;9.20;3.42;;;11.70;99.90;;;;;;6241991;23;20028;-66
2024/02/05 11:11:09;;;;;;;8.82;3.35;;;11.70;99.90;;;;;;6242334;23;20497;-67
2024/02/05 11:13:56;;;;;;;8.70;3.88;;;11.70;99.90;;;;;;6240093;23;20456;-67
2024/02/05 11:16:44;;;;;;;9.82;3.80;;;11.70;99.90;;;;;;6243321;23;20016;-66
2024/02/05 11:19:32;;;;;;;11.13;4.32;;;11.70;99.90;;;;;;6242812;23;20142;-68
2024/02/05 11:22:20;;;;;;;12.52;4.93;;;11.70;99.90;;;;;;6242450;23;20093;-69
2024/02/05 11:25:06;;;;;;;9.48;4.57;;;11.60;99.90;;;;;;6240556;23;20083;-68
2024/02/05 11:27:53;;;;;;;10.50;4.53;;;11.60;99.90;;;;;;6241094;23;20527;-68
2024/02/05 11:30:43;;;;;;;10.77;3.92;;;11.60;99.90;;;;;;6241456;23;20000;-68
2024/02/05 11:33:30;;;;;;;9.57;4.25;;;11.60;99.90;;;;;;6243773;23;20008;-67
2024/02/05 11:36:16;;;;;;;7.50;3.90;;;11.60;99.90;;;;;;6242934;23;20004;-68
2024/02/05 11:39:09;;;;;;;7.10;3.85;;;11.60;99.90;;;;;;6241497;23;20012;-65
2024/02/05 11:42:06;;;;;;;9.02;3.75;;;11.60;99.90;;;;;;6241544;23;20008;-67
2024/02/05 11:44:54;;;;;;;11.45;4.18;;;11.70;99.90;;;;;;6242958;23;20027;-67
2024/02/05 11:47:40;;;;;;;13.45;4.43;;;11.60;99.90;;;;;;6244049;23;20093;-67
2024/02/05 11:50:26;;;;;;;12.27;4.65;;;11.60;99.90;;;;;;6243467;23;20004;-67
2024/02/05 11:53:14;;;;;;;13.32;4.10;;;11.60;99.90;;;;;;6241852;23;20008;-67
2024/02/05 11:56:00;;;;;;;9.75;4.25;;;11.60;99.90;;;;;;6240457;23;20066;-67
2024/02/05 11:58:46;;;;;;;8.32;3.70;;;11.60;99.90;;;;;;6241503;23;20008;-66
2024/02/05 12:01:33;;;;;;;12.68;4.22;;;11.60;99.90;;;;;;6241329;23;20008;-66
2024/02/05 12:04:19;;;;;;;12.27;4.00;;;11.60;99.90;;;;;;6241542;23;20012;-68
2024/02/05 12:07:06;;;;;;;6.88;3.60;;;11.60;99.90;;;;;;6241463;23;20008;-67
2024/02/05 12:09:53;;;;;;;10.90;3.75;;;11.60;99.90;;;;;;6242048;23;20070;-67
2024/02/05 12:12:39;;;;;;;7.53;3.60;;;11.60;99.90;;;;;;6241033;23;20026;-68
2024/02/05 12:15:27;;;;;;;7.53;3.53;;;11.60;99.90;;;;;;6240212;23;20008;-67
2024/02/05 12:18:13;;;;;;;8.63;3.67;;;11.50;99.90;;;;;;6242456;23;20467;-67
2024/02/05 12:20:59;;;;;;;9.95;4.28;;;11.60;99.90;;;;;;6241651;23;20461;-67
2024/02/05 12:23:45;;;;;;;9.55;4.05;;;11.60;99.90;;;;;;6241580;23;20015;-68
2024/02/05 12:26:31;;;;;;;10.50;4.40;;;11.60;99.90;;;;;;6241986;23;20008;-67
2024/02/05 12:29:24;;;;;;;12.50;4.40;;;11.60;99.90;;;;;;6240454;23;20020;-68
2024/02/05 12:32:10;;;;;;;10.23;4.22;;;11.60;99.90;;;;;;6242215;23;20008;-68
2024/02/05 12:34:58;;;;;;;8.98;3.55;;;11.50;99.90;;;;;;6241135;23;20534;-67
2024/02/05 12:37:44;;;;;;;12.68;4.57;;;11.50;99.90;;;;;;6242179;23;20012;-67
2024/02/05 12:40:30;;;;;;;10.13;4.10;;;11.50;99.90;;;;;;6242503;23;20012;-68
2024/02/05 12:43:16;;;;;;;9.80;4.00;;;11.50;99.90;;;;;;6243243;23;20016;-68
2024/02/05 12:46:02;;;;;;;9.73;3.50;;;11.50;99.90;;;;;;6243847;23;20063;-66
2024/02/05 12:48:49;;;;;;;9.32;3.60;;;11.50;99.90;;;;;;6241071;23;20020;-67
2024/02/05 12:51:36;;;;;;;11.43;4.70;;;11.50;99.90;;;;;;6242343;23;20267;-68
2024/02/05 12:54:22;;;;;;;14.40;4.88;;;11.50;99.90;;;;;;6239964;23;20016;-68
2024/02/05 12:57:08;;;;;;;10.23;4.10;;;11.60;99.90;;;;;;6240472;23;20008;-67
2024/02/05 12:59:55;;;;;;;10.85;4.82;;;11.60;99.90;;;;;;6242013;23;20099;-68
2024/02/05 13:02:41;;;;;;;13.07;3.75;;;11.70;99.90;;;;;;6242426;23;20015;-67
2024/02/05 13:05:28;;;;;;;13.85;4.50;;;11.60;99.90;;;;;;6240869;23;20012;-67
2024/02/05 13:08:15;;;;;;;12.38;4.20;;;11.60;99.90;;;;;;6240156;23;20102;-68
2024/02/05 13:11:04;;;;;;;9.20;3.85;;;11.70;99.90;;;;;;6240069;23;20016;-68
2024/02/05 13:13:51;;;;;;;11.70;4.93;;;11.60;99.90;;;;;;6240949;23;20020;-68
2024/02/05 13:16:37;;;;;;;18.10;5.43;;;11.70;99.90;;;;;;6240536;23;20004;-68
2024/02/05 13:19:23;;;;;;;12.27;4.68;;;11.60;99.90;;;;;;6238577;23;20016;-67
2024/02/05 13:22:09;;;;;;;11.60;4.88;;;11.60;99.90;;;;;;6239606;23;20008;-67
2024/02/05 13:24:55;;;;;;;13.82;5.43;;;11.60;99.90;;;;;;6220080;23;20065;-68
2024/02/05 13:27:41;;;;;;;16.52;5.03;;;11.60;99.90;;;;;;6241193;23;20369;-67
2024/02/05 13:30:27;;;;;;;12.25;4.43;;;11.70;99.90;;;;;;6240303;23;20046;-68
2024/02/05 13:33:13;;;;;;;14.85;5.15;;;11.70;99.90;;;;;;6241345;23;20018;-67
2024/02/05 13:36:00;;;;;;;14.70;5.22;;;11.70;99.90;;;;;;6242582;23;20035;-67
2024/02/05 13:38:46;;;;;;;11.98;4.22;;;11.70;99.90;;;;;;6242249;23;20016;-66
2024/02/05 13:41:41;;;;;;;13.05;4.05;;;11.70;99.90;;;;;;6240215;23;20008;-68
2024/02/05 13:44:27;;;;;;;13.10;4.90;;;11.70;99.90;;;;;;6241936;23;20012;-69
2024/02/05 13:47:13;;;;;;;12.05;5.10;;;11.70;99.90;;;;;;6239541;23;20016;-67
2024/02/05 13:49:59;;;;;;;11.82;4.82;;;11.70;99.90;;;;;;6240879;23;20016;-67
2024/02/05 13:52:45;;;;;;;15.55;4.63;;;11.80;99.90;;;;;;6238710;23;20043;-68
